createdAt,value
2017-06-25T00:01:34.223Z,72.02
2017-06-25T00:04:02.600Z,72.07
2017-06-25T00:06:30.976Z,72.08
2017-06-25T00:09:00.007Z,72.10
2017-06-25T00:11:28.780Z,71.96
2017-06-25T00:13:57.552Z,72.02
2017-06-25T00:16:26.112Z,72.11
2017-06-25T00:18:54.488Z,72.02
2017-06-25T00:21:23.092Z,71.99
2017-06-25T00:23:52.404Z,72.09
2017-06-25T00:26:20.784Z,71.97
2017-06-25T00:28:49.163Z,72.12
2017-06-25T00:31:17.868Z,72.03
2017-06-25T00:33:46.639Z,72.08
2017-06-25T00:36:15.016Z,72.09
2017-06-25T00:38:43.721Z,72.17
2017-06-25T00:41:12.499Z,72.34
2017-06-25T00:43:41.297Z,72.29
2017-06-25T00:46:10.613Z,72.40
2017-06-25T00:48:39.375Z,72.22
2017-06-25T00:51:07.785Z,72.20
2017-06-25T00:53:41.983Z,72.01
2017-06-25T00:56:10.352Z,71.96
2017-06-25T00:58:38.732Z,71.98
2017-06-25T01:01:07.316Z,72.04
2017-06-25T01:03:35.699Z,72.26
2017-06-25T01:06:04.408Z,72.31
2017-06-25T01:08:33.480Z,72.42
2017-06-25T01:11:01.860Z,72.49
2017-06-25T01:13:30.242Z,72.43
2017-06-25T01:15:58.831Z,72.66
2017-06-25T01:18:27.207Z,72.67
2017-06-25T01:20:55.587Z,72.64
2017-06-25T01:23:24.476Z,72.57
2017-06-25T01:25:52.857Z,72.50
2017-06-25T01:28:21.291Z,72.64
2017-06-25T01:30:50.023Z,72.67
2017-06-25T01:33:18.403Z,72.76
2017-06-25T01:35:46.775Z,72.91
2017-06-25T01:38:15.371Z,72.99
2017-06-25T01:40:43.756Z,72.99
2017-06-25T01:43:12.131Z,73.06
2017-06-25T01:45:40.792Z,73.05
2017-06-25T01:48:09.171Z,73.12
2017-06-25T01:50:37.551Z,73.27
2017-06-25T01:53:06.156Z,73.37
2017-06-25T01:55:34.533Z,73.42
2017-06-25T01:58:02.908Z,73.37
2017-06-25T02:00:31.495Z,73.38
2017-06-25T02:02:59.881Z,73.47
2017-06-25T02:05:28.259Z,73.48
2017-06-25T02:07:57.171Z,73.50
2017-06-25T02:10:25.946Z,73.54
2017-06-25T02:12:54.324Z,73.69
2017-06-25T02:15:23.113Z,73.81
2017-06-25T02:17:51.819Z,73.87
2017-06-25T02:20:20.591Z,74.04
2017-06-25T02:22:49.137Z,73.83
2017-06-25T02:25:17.736Z,74.00
2017-06-25T02:27:46.112Z,74.56
2017-06-25T02:30:14.821Z,75.87
2017-06-25T02:32:43.204Z,75.64
2017-06-25T02:35:11.907Z,75.46
2017-06-25T02:37:40.981Z,75.00
2017-06-25T02:40:09.359Z,74.86
2017-06-25T02:42:37.746Z,74.76
2017-06-25T02:45:06.589Z,74.62
2017-06-25T02:47:35.239Z,75.00
2017-06-25T02:50:04.011Z,74.90
2017-06-25T02:52:32.595Z,75.23
2017-06-25T02:55:00.981Z,75.99
2017-06-25T02:57:29.459Z,77.49
2017-06-25T02:59:58.120Z,79.70
2017-06-25T03:02:26.500Z,81.18
2017-06-25T03:04:54.890Z,82.40
2017-06-25T03:07:23.691Z,84.17
2017-06-25T03:09:52.084Z,85.10
2017-06-25T03:12:20.863Z,86.12
2017-06-25T03:14:49.547Z,87.12
2017-06-25T03:17:17.931Z,87.34
2017-06-25T03:19:46.324Z,87.91
2017-06-25T03:22:15.503Z,88.20
2017-06-25T03:24:43.887Z,88.52
2017-06-25T03:27:12.572Z,88.66
2017-06-25T03:29:41.265Z,88.39
2017-06-25T03:32:09.650Z,88.44
2017-06-25T03:34:38.030Z,88.60
2017-06-25T03:37:06.992Z,88.72
2017-06-25T03:39:35.380Z,89.09
2017-06-25T03:42:03.765Z,89.27
2017-06-25T03:44:32.459Z,89.72
2017-06-25T03:47:00.839Z,89.50
2017-06-25T03:49:29.225Z,89.46
2017-06-25T03:51:58.012Z,89.61
2017-06-25T03:54:26.495Z,89.68
2017-06-25T03:56:54.871Z,90.09
2017-06-25T03:59:23.759Z,90.42
2017-06-25T04:01:52.139Z,90.76
2017-06-25T04:04:20.847Z,91.24
2017-06-25T04:06:49.412Z,91.22
2017-06-25T04:09:17.791Z,91.07
2017-06-25T04:11:46.171Z,90.61
2017-06-25T04:14:14.964Z,90.80
2017-06-25T04:16:43.343Z,90.81
2017-06-25T04:19:11.724Z,90.74
2017-06-25T04:21:40.411Z,90.77
2017-06-25T04:24:08.796Z,90.35
2017-06-25T04:26:37.579Z,90.35
2017-06-25T04:29:06.679Z,90.00
2017-06-25T04:31:35.060Z,89.71
2017-06-25T04:34:03.443Z,90.01
2017-06-25T04:36:32.857Z,89.41
2017-06-25T04:39:01.641Z,89.06
2017-06-25T04:41:30.421Z,88.63
2017-06-25T04:43:58.995Z,88.16
2017-06-25T04:46:27.375Z,87.68
2017-06-25T04:48:55.766Z,87.01
2017-06-25T04:51:24.442Z,86.67
2017-06-25T04:53:53.147Z,86.42
2017-06-25T04:56:21.923Z,85.46
2017-06-25T04:58:50.508Z,85.24
2017-06-25T05:01:18.887Z,84.39
2017-06-25T05:03:47.278Z,83.53
2017-06-25T05:06:16.467Z,83.24
2017-06-25T05:08:44.851Z,83.31
2017-06-25T05:11:13.551Z,83.46
2017-06-25T05:13:42.628Z,82.88
2017-06-25T05:16:11.004Z,82.43
2017-06-25T05:18:39.379Z,82.01
2017-06-25T05:21:08.860Z,82.18
2017-06-25T05:23:37.243Z,81.88
2017-06-25T05:26:05.624Z,80.74
2017-06-25T05:28:34.207Z,80.35
2017-06-25T05:31:02.911Z,79.96
2017-06-25T05:33:31.283Z,79.52
2017-06-25T05:35:59.879Z,79.80
2017-06-25T05:38:28.255Z,79.75
2017-06-25T05:40:56.645Z,79.02
2017-06-25T05:43:25.439Z,78.43
2017-06-25T05:45:53.819Z,77.76
2017-06-25T05:48:22.200Z,77.33
2017-06-25T05:50:50.775Z,77.52
2017-06-25T05:53:19.159Z,77.04
2017-06-25T05:55:47.535Z,77.28
2017-06-25T05:58:16.223Z,76.88
2017-06-25T06:00:44.599Z,77.06
2017-06-25T06:03:12.967Z,76.89
2017-06-25T06:05:41.570Z,76.89
2017-06-25T06:08:09.939Z,77.00
2017-06-25T06:10:38.316Z,76.49
2017-06-25T06:13:07.241Z,76.33
2017-06-25T06:15:36.013Z,78.03
2017-06-25T06:18:04.395Z,77.99
2017-06-25T06:20:33.099Z,76.45
2017-06-25T06:23:01.878Z,76.07
2017-06-25T06:25:30.652Z,76.09
2017-06-25T06:27:59.350Z,77.40
2017-06-25T06:30:27.729Z,79.05
2017-06-25T06:32:56.327Z,78.55
2017-06-25T06:35:25.406Z,77.13
2017-06-25T06:37:53.779Z,77.89
2017-06-25T06:40:22.156Z,78.60
2017-06-25T06:42:50.757Z,80.11
2017-06-25T06:45:19.531Z,80.41
2017-06-25T06:47:47.911Z,80.01
2017-06-25T06:50:16.623Z,81.48
2017-06-25T06:52:45.392Z,79.86
2017-06-25T06:55:13.824Z,79.77
2017-06-25T06:57:42.512Z,80.80
2017-06-25T07:00:10.892Z,81.10
2017-06-25T07:02:39.275Z,80.18
2017-06-25T07:05:07.875Z,77.48
2017-06-25T07:07:36.251Z,75.74
2017-06-25T07:10:04.632Z,77.56
2017-06-25T07:12:33.242Z,77.63
2017-06-25T07:15:01.624Z,77.86
2017-06-25T07:17:30.331Z,76.18
2017-06-25T07:19:59.273Z,76.90
2017-06-25T07:22:27.657Z,75.21
2017-06-25T07:24:56.035Z,74.36
2017-06-25T07:27:24.647Z,74.71
2017-06-25T07:29:53.076Z,72.60
2017-06-25T07:32:21.460Z,73.14
2017-06-25T07:34:50.479Z,74.89
2017-06-25T07:37:18.855Z,74.53
2017-06-25T07:39:47.223Z,73.31
2017-06-25T07:42:15.801Z,67.73
2017-06-25T07:44:44.184Z,65.37
2017-06-25T07:47:12.562Z,61.72
2017-06-25T07:49:41.296Z,58.82
2017-06-25T07:52:09.667Z,56.23
2017-06-25T07:54:38.279Z,54.85
2017-06-25T07:57:07.247Z,55.54
2017-06-25T07:59:35.618Z,56.53
2017-06-25T08:02:04.239Z,56.29
2017-06-25T08:04:33.343Z,58.44
2017-06-25T08:07:02.034Z,59.31
2017-06-25T08:09:30.415Z,60.47
2017-06-25T08:11:59.072Z,60.26
2017-06-25T08:14:27.447Z,59.36
2017-06-25T08:16:55.823Z,58.35
2017-06-25T08:19:24.384Z,57.01
2017-06-25T08:21:52.762Z,57.85
2017-06-25T08:24:21.141Z,59.07
2017-06-25T08:26:49.696Z,59.50
2017-06-25T08:29:18.084Z,59.77
2017-06-25T08:31:46.461Z,61.83
2017-06-25T08:34:15.096Z,66.07
2017-06-25T08:36:43.707Z,66.52
2017-06-25T08:39:12.474Z,65.06
2017-06-25T08:41:41.260Z,63.45
2017-06-25T08:44:09.631Z,63.72
2017-06-25T08:46:38.005Z,62.69
2017-06-25T08:49:06.932Z,61.50
2017-06-25T08:51:35.695Z,61.10
2017-06-25T08:54:04.067Z,60.43
2017-06-25T08:56:32.767Z,59.12
2017-06-25T08:59:01.134Z,59.20
2017-06-25T09:01:29.507Z,58.22
2017-06-25T09:03:58.126Z,58.80
2017-06-25T09:06:26.899Z,58.07
2017-06-25T09:08:55.268Z,56.71
2017-06-25T09:11:23.865Z,57.26
2017-06-25T09:13:52.658Z,56.65
2017-06-25T09:16:21.030Z,54.86
2017-06-25T09:18:49.925Z,54.38
2017-06-25T09:21:18.301Z,54.38
2017-06-25T09:23:46.667Z,55.58
2017-06-25T09:26:15.268Z,56.44
2017-06-25T09:28:43.642Z,55.92
2017-06-25T09:31:12.012Z,57.08
2017-06-25T09:33:40.771Z,56.99
2017-06-25T09:36:09.138Z,57.32
2017-06-25T09:38:37.783Z,58.18
2017-06-25T09:41:06.690Z,58.97
2017-06-25T09:43:35.463Z,60.14
2017-06-25T09:46:03.837Z,60.82
2017-06-25T09:48:32.432Z,61.00
2017-06-25T09:51:01.135Z,60.90
2017-06-25T09:53:29.890Z,60.36
2017-06-25T09:55:58.586Z,60.17
2017-06-25T09:58:26.960Z,59.92
2017-06-25T10:00:55.576Z,59.85
2017-06-25T10:03:24.339Z,60.56
2017-06-25T10:05:52.709Z,60.27
2017-06-25T10:08:21.084Z,59.51
2017-06-25T10:10:49.683Z,58.22
2017-06-25T10:13:18.050Z,53.95
2017-06-25T10:15:46.432Z,51.26
2017-06-25T10:18:15.027Z,48.90
2017-06-25T10:20:43.406Z,48.51
2017-06-25T10:23:12.075Z,48.04
2017-06-25T10:25:40.679Z,47.76
2017-06-25T10:28:09.051Z,46.80
2017-06-25T10:30:37.420Z,46.02
2017-06-25T10:33:06.019Z,46.18
2017-06-25T10:35:34.387Z,46.91
2017-06-25T10:38:02.755Z,47.96
2017-06-25T10:40:31.775Z,48.99
2017-06-25T10:43:00.143Z,49.99
2017-06-25T10:45:28.514Z,49.36
2017-06-25T10:47:57.127Z,49.50
2017-06-25T10:50:25.499Z,47.27
2017-06-25T10:52:53.871Z,47.96
2017-06-25T10:55:22.562Z,47.06
2017-06-25T10:57:51.175Z,47.91
2017-06-25T11:00:19.542Z,48.73
2017-06-25T11:02:48.645Z,49.99
2017-06-25T11:05:17.406Z,47.29
2017-06-25T11:07:45.775Z,46.50
2017-06-25T11:10:14.578Z,46.08
2017-06-25T11:12:42.946Z,43.53
2017-06-25T11:15:11.324Z,39.76
2017-06-25T11:17:39.933Z,39.21
2017-06-25T11:20:08.315Z,39.74
2017-06-25T11:22:36.682Z,41.91
2017-06-25T11:25:05.370Z,45.32
2017-06-25T11:27:33.738Z,48.34
2017-06-25T11:30:02.107Z,50.73
2017-06-25T11:32:30.916Z,51.87
2017-06-25T11:34:59.320Z,51.06
2017-06-25T11:37:28.086Z,49.72
2017-06-25T11:39:56.672Z,48.02
2017-06-25T11:42:25.349Z,46.31
2017-06-25T11:44:53.722Z,45.10
2017-06-25T11:47:22.323Z,44.81
2017-06-25T11:49:50.691Z,45.38
2017-06-25T11:52:19.062Z,45.27
2017-06-25T11:54:47.675Z,45.92
2017-06-25T11:57:16.048Z,46.57
2017-06-25T11:59:44.419Z,46.96
2017-06-25T12:02:13.015Z,48.37
2017-06-25T12:04:41.387Z,53.40
2017-06-25T12:07:09.774Z,58.25
2017-06-25T12:09:38.559Z,64.15
2017-06-25T12:12:06.931Z,68.62
2017-06-25T12:14:35.303Z,71.20
2017-06-25T12:17:04.007Z,76.85
2017-06-25T12:19:32.379Z,80.62
2017-06-25T12:22:00.746Z,81.66
2017-06-25T12:24:29.350Z,82.80
2017-06-25T12:26:57.724Z,81.15
2017-06-25T12:29:26.091Z,76.50
2017-06-25T12:31:55.127Z,76.88
2017-06-25T12:34:23.894Z,75.52
2017-06-25T12:36:52.265Z,76.20
2017-06-25T12:39:20.863Z,74.78
2017-06-25T12:41:49.570Z,71.97
2017-06-25T12:44:18.115Z,70.95
2017-06-25T12:46:46.711Z,69.13
2017-06-25T12:49:15.088Z,68.77
2017-06-25T12:51:43.459Z,68.70
2017-06-25T12:54:12.159Z,68.80
2017-06-25T12:56:40.531Z,68.89
2017-06-25T12:59:08.909Z,67.58
2017-06-25T13:01:37.503Z,68.77
2017-06-25T13:04:05.877Z,70.58
2017-06-25T13:06:34.252Z,71.82
2017-06-25T13:09:03.279Z,71.79
2017-06-25T13:11:32.050Z,71.50
2017-06-25T13:14:00.422Z,72.17
2017-06-25T13:16:29.211Z,71.94
2017-06-25T13:18:57.584Z,71.72
2017-06-25T13:21:25.956Z,71.63
2017-06-25T13:23:54.543Z,71.47
2017-06-25T13:26:22.915Z,70.17
2017-06-25T13:28:51.318Z,69.49
2017-06-25T13:31:20.106Z,67.79
2017-06-25T13:33:48.540Z,66.89
2017-06-25T13:36:16.915Z,66.21
2017-06-25T13:38:45.755Z,67.15
2017-06-25T13:41:14.131Z,68.07
2017-06-25T13:43:42.822Z,69.15
2017-06-25T13:46:11.738Z,68.12
2017-06-25T13:48:40.511Z,67.64
2017-06-25T13:51:08.890Z,67.54
2017-06-25T13:53:37.567Z,66.63
2017-06-25T13:56:05.939Z,66.18
2017-06-25T13:58:34.558Z,66.06
2017-06-25T14:01:03.644Z,66.34
2017-06-25T14:03:32.019Z,65.43
2017-06-25T14:06:00.387Z,64.34
2017-06-25T14:08:28.966Z,61.94
2017-06-25T14:10:57.337Z,60.30
2017-06-25T14:13:25.707Z,59.54
2017-06-25T14:15:54.320Z,59.02
2017-06-25T14:18:22.694Z,59.81
2017-06-25T14:20:51.058Z,59.42
2017-06-25T14:23:19.663Z,58.16
2017-06-25T14:25:48.038Z,57.83
2017-06-25T14:28:16.483Z,57.73
2017-06-25T14:30:45.116Z,57.90
2017-06-25T14:33:13.487Z,58.15
2017-06-25T14:35:41.859Z,57.08
2017-06-25T14:38:10.451Z,56.23
2017-06-25T14:40:40.068Z,56.73
2017-06-25T14:43:08.443Z,57.38
2017-06-25T14:45:37.335Z,57.30
2017-06-25T14:48:05.771Z,58.26
2017-06-25T14:50:34.151Z,57.68
2017-06-25T14:53:03.807Z,57.46
2017-06-25T14:55:32.177Z,56.72
2017-06-25T14:58:00.547Z,56.58
2017-06-25T15:00:29.249Z,55.71
2017-06-25T15:02:57.618Z,55.53
2017-06-25T15:05:26.006Z,56.34
2017-06-25T15:07:54.690Z,56.34
2017-06-25T15:10:23.886Z,56.66
2017-06-25T15:12:52.258Z,57.86
2017-06-25T15:15:20.855Z,58.27
2017-06-25T15:17:49.222Z,57.74
2017-06-25T15:20:17.599Z,56.99
2017-06-25T15:22:46.741Z,57.48
2017-06-25T15:25:15.512Z,56.79
2017-06-25T15:27:43.888Z,57.02
2017-06-25T15:30:12.675Z,56.42
2017-06-25T15:32:41.046Z,57.27
2017-06-25T15:35:09.414Z,56.97
2017-06-25T15:37:38.150Z,57.10
2017-06-25T15:40:06.515Z,57.69
2017-06-25T15:42:35.618Z,58.24
2017-06-25T15:45:04.692Z,59.87
2017-06-25T15:47:33.462Z,60.55
2017-06-25T15:50:02.086Z,60.75
2017-06-25T15:52:31.264Z,61.16
2017-06-25T15:54:59.632Z,62.06
2017-06-25T15:57:28.002Z,62.35
2017-06-25T15:59:56.603Z,62.43
2017-06-25T16:02:24.974Z,63.21
2017-06-25T16:04:53.342Z,63.95
2017-06-25T16:07:21.956Z,64.42
2017-06-25T16:09:50.322Z,64.06
2017-06-25T16:12:18.700Z,63.42
2017-06-25T16:14:47.083Z,63.03
2017-06-25T16:17:15.495Z,62.93
2017-06-25T16:19:44.766Z,63.14
2017-06-25T16:22:13.145Z,63.83
2017-06-25T16:24:41.523Z,64.68
2017-06-25T16:27:09.906Z,65.95
2017-06-25T16:29:38.295Z,66.86
2017-06-25T16:32:06.707Z,68.21
2017-06-25T16:34:35.079Z,69.69
2017-06-25T16:37:03.466Z,75.94
2017-06-25T16:39:31.831Z,80.91
2017-06-25T16:42:00.962Z,83.09
2017-06-25T16:44:30.142Z,84.51
2017-06-25T16:46:58.519Z,84.54
2017-06-25T16:49:26.907Z,85.23
2017-06-25T16:51:55.278Z,84.88
2017-06-25T16:54:23.847Z,84.92
2017-06-25T16:56:52.715Z,83.03
2017-06-25T16:59:21.086Z,82.41
2017-06-25T17:01:49.471Z,82.21
2017-06-25T17:04:17.842Z,81.64
2017-06-25T17:06:46.563Z,81.35
2017-06-25T17:09:15.332Z,81.96
2017-06-25T17:11:44.015Z,81.89
2017-06-25T17:14:12.403Z,81.00
2017-06-25T17:16:41.107Z,79.86
2017-06-25T17:19:09.891Z,80.13
2017-06-25T17:21:38.666Z,78.89
2017-06-25T17:24:07.055Z,76.97
2017-06-25T17:26:35.430Z,77.74
2017-06-25T17:29:03.812Z,76.01
2017-06-25T17:31:32.187Z,74.90
2017-06-25T17:34:00.573Z,74.81
2017-06-25T17:36:28.948Z,74.77
2017-06-25T17:38:57.343Z,74.17
2017-06-25T17:41:26.106Z,73.14
2017-06-25T17:43:54.693Z,73.75
2017-06-25T17:46:23.066Z,74.94
2017-06-25T17:48:52.007Z,74.97
2017-06-25T17:51:20.398Z,74.88
2017-06-25T17:53:48.771Z,74.35
2017-06-25T17:56:17.154Z,75.12
2017-06-25T17:58:45.522Z,75.85
2017-06-25T18:01:13.916Z,75.85
2017-06-25T18:03:42.831Z,75.67
2017-06-25T18:06:11.335Z,75.24
2017-06-25T18:08:39.706Z,75.55
2017-06-25T18:11:08.083Z,75.45
2017-06-25T18:13:36.466Z,74.31
2017-06-25T18:16:04.840Z,74.68
2017-06-25T18:18:33.278Z,74.24
2017-06-25T18:21:01.676Z,73.26
2017-06-25T18:23:30.104Z,73.02
2017-06-25T18:26:00.079Z,72.72
2017-06-25T18:28:28.471Z,72.46
2017-06-25T18:30:56.875Z,72.12
2017-06-25T18:33:25.459Z,71.93
2017-06-25T18:35:53.827Z,72.63
2017-06-25T18:38:22.198Z,72.54
2017-06-25T18:40:50.583Z,72.62
2017-06-25T18:43:18.955Z,72.72
2017-06-25T18:45:47.351Z,73.64
2017-06-25T18:48:15.722Z,74.27
2017-06-25T18:50:44.113Z,75.61
2017-06-25T18:53:12.483Z,75.75
2017-06-25T18:55:41.026Z,76.23
2017-06-25T18:58:09.463Z,76.74
2017-06-25T19:00:37.841Z,76.97
2017-06-25T19:03:06.231Z,77.10
2017-06-25T19:05:34.934Z,76.95
2017-06-25T19:08:03.779Z,77.18
2017-06-25T19:10:32.155Z,77.24
2017-06-25T19:13:00.550Z,77.25
2017-06-25T19:15:28.920Z,77.82
2017-06-25T19:17:57.442Z,78.32
2017-06-25T19:20:26.216Z,79.18
2017-06-25T19:22:55.231Z,79.50
2017-06-25T19:25:24.228Z,80.14
2017-06-25T19:27:52.998Z,80.48
2017-06-25T19:30:21.383Z,80.61
2017-06-25T19:32:49.758Z,81.02
2017-06-25T19:35:18.147Z,81.17
2017-06-25T19:37:47.288Z,80.85
2017-06-25T19:40:15.792Z,80.81
2017-06-25T19:42:44.454Z,80.51
2017-06-25T19:45:13.449Z,80.85
2017-06-25T19:47:41.818Z,81.19
2017-06-25T19:50:11.776Z,81.52
2017-06-25T19:52:40.159Z,81.81
2017-06-25T19:55:08.531Z,82.07
2017-06-25T19:57:36.919Z,82.44
2017-06-25T20:00:05.302Z,82.88
2017-06-25T20:02:33.845Z,83.06
2017-06-25T20:05:02.267Z,83.01
2017-06-25T20:07:31.055Z,82.78
2017-06-25T20:09:59.431Z,82.26
2017-06-25T20:12:27.815Z,81.85
2017-06-25T20:14:56.207Z,81.94
2017-06-25T20:17:24.575Z,81.46
2017-06-25T20:19:52.955Z,81.39
2017-06-25T20:22:22.055Z,81.52
2017-06-25T20:24:50.443Z,81.51
2017-06-25T20:27:18.819Z,81.13
2017-06-25T20:29:47.395Z,80.81
2017-06-25T20:32:15.767Z,80.86
2017-06-25T20:34:44.134Z,81.79
2017-06-25T20:37:13.583Z,83.49
2017-06-25T20:39:42.360Z,85.01
2017-06-25T20:42:11.166Z,86.73
2017-06-25T20:44:39.942Z,87.84
2017-06-25T20:47:08.728Z,87.85
2017-06-25T20:49:37.106Z,88.62
2017-06-25T20:52:05.692Z,88.98
2017-06-25T20:54:34.075Z,89.26
2017-06-25T20:57:02.850Z,90.46
2017-06-25T20:59:31.559Z,91.12
2017-06-25T21:02:00.343Z,91.61
2017-06-25T21:04:29.129Z,91.91
2017-06-25T21:06:57.898Z,91.56
2017-06-25T21:09:26.283Z,91.37
2017-06-25T21:11:54.658Z,91.77
2017-06-25T21:14:23.251Z,91.78
2017-06-25T21:16:51.971Z,91.94
2017-06-25T21:19:20.352Z,91.59
2017-06-25T21:21:48.734Z,91.01
2017-06-25T21:24:17.111Z,91.24
2017-06-25T21:26:45.506Z,91.30
2017-06-25T21:29:13.874Z,91.02
2017-06-25T21:31:42.258Z,90.43
2017-06-25T21:34:10.692Z,90.57
2017-06-25T21:36:39.071Z,90.90
2017-06-25T21:39:07.438Z,90.99
2017-06-25T21:41:35.822Z,90.69
2017-06-25T21:44:04.207Z,90.66
2017-06-25T21:46:32.574Z,90.42
2017-06-25T21:49:01.204Z,90.34
2017-06-25T21:51:29.979Z,90.70
2017-06-25T21:53:58.627Z,90.51
2017-06-25T21:56:27.004Z,90.81
2017-06-25T21:58:55.374Z,90.80
2017-06-25T22:01:23.760Z,91.37
2017-06-25T22:03:52.914Z,91.28
2017-06-25T22:06:21.703Z,91.33
2017-06-25T22:08:50.474Z,91.06
2017-06-25T22:11:19.480Z,91.23
2017-06-25T22:13:48.252Z,91.25
2017-06-25T22:16:16.630Z,90.97
2017-06-25T22:18:45.106Z,90.97
2017-06-25T22:21:14.143Z,91.15
2017-06-25T22:23:42.791Z,91.38
2017-06-25T22:26:11.280Z,91.59
2017-06-25T22:28:39.659Z,92.04
2017-06-25T22:31:08.042Z,92.45
2017-06-25T22:33:36.419Z,92.69
2017-06-25T22:36:04.852Z,92.54
2017-06-25T22:38:33.235Z,92.49
2017-06-25T22:41:01.648Z,92.29
2017-06-25T22:43:30.035Z,92.12
2017-06-25T22:45:58.618Z,92.01
2017-06-25T22:48:26.998Z,92.00
2017-06-25T22:50:55.945Z,91.81
2017-06-25T22:53:24.339Z,91.69
2017-06-25T22:55:53.546Z,91.64
2017-06-25T22:58:22.178Z,91.05
2017-06-25T23:00:50.946Z,91.01
2017-06-25T23:03:19.523Z,90.98
2017-06-25T23:05:47.894Z,90.73
2017-06-25T23:08:17.079Z,90.57
2017-06-25T23:10:45.471Z,90.22
2017-06-25T23:13:13.879Z,90.20
2017-06-25T23:15:42.271Z,90.15
2017-06-25T23:18:11.042Z,90.19
2017-06-25T23:20:39.426Z,89.80
2017-06-25T23:23:07.805Z,89.59
2017-06-25T23:25:36.195Z,89.38
2017-06-25T23:28:04.962Z,89.37
2017-06-25T23:30:33.563Z,89.25
2017-06-25T23:33:02.335Z,89.56
2017-06-25T23:35:30.711Z,89.59
2017-06-25T23:37:59.099Z,89.58
2017-06-25T23:40:28.108Z,89.68
2017-06-25T23:42:56.897Z,89.77
2017-06-25T23:45:25.728Z,89.66
2017-06-25T23:47:57.694Z,89.36
2017-06-25T23:50:26.075Z,89.40
2017-06-25T23:52:54.799Z,89.32
2017-06-25T23:55:23.171Z,89.19
2017-06-25T23:57:51.546Z,89.23
